« Back
NWS Peachtree City, Ga » Text Product » CSG Terminal Aerodrome Forecast


Printer-friendly Version
Current Version              Previous Versions:   1  2  3  4  5  6  7  8  9  

Terminal Aerodrome Forecast

547
FTUS42 KFFC 011100
TAFCSG
TAF
KCSG 011140Z 0112/0212 00000KT P6SM FEW150
     FM011400 VRB03KT P6SM SCT030 SCT150
     FM011800 23004KT P6SM SCT050 SCT150 PROB30 0121/0201 -TSRA
      BKN050CB
     FM020100 00000KT P6SM FEW060 SCT150=

USA.gov is the U.S. government's official web portal to all federal, state and local government web resources and services.